Hauptseite
METAR-TAF:

METAR-TAF

Flughäfen :

Hagåtña, Guam, Vereinigte Staaten

Flughafen Antonio B. Won Pat

Breite: 13-29N, Länge: 144-48E, Höhe: 91 m

Beobachtung

Neuester Wetterbericht von vor 24 Minuten, um 16:54 UTC
Wind 7 kt aus Ost/Nordost
Temperatur 27°C
Luftfeuchtigkeit 79%
Luftdruck 1010 hPa
Sichtweite: 16.1 km
Leicht bewölkt in der Höhe von 2300 ft

METAR: PGUM 161654Z 07007KT 10SM FEW023 27/23 A2983 RMK AO2 SLP093 T02670233

Zeit: 03:18 (17:18 UTC)

Prognose

Neuester Wetterbericht von vor 5 Stunden und 55 Minuten, um 11:23 UTC
Gültige Prognose vom 16 um 12 UTC bis 17 um 18 UTC
Wind 11 kt aus Ost/Nordost
Sichtweite: 10 km
Aufgelockert bewölkt in der Höhe von 2100 ft

TAF: PGUM 161123Z 1612/1718 07011KT P6SM SCT021

Wetterbeobachtungen und Prognosen von mehr als 4000 Flughäfen (METAR und TAF Bericht).

Die verfügbaren Stationen werden durch gelbe und rote Markierungen auf der Karte dargestellt.

Führen Sie die Maus auf sie, um den Namen der Station zu sehen.

Darauf klicken, um die Beobachtung von Wetterbeobachtungen und Prognosen zu sehen.

Um die Karte zu ändern : klicken Sie auf den grünen Tasten mit einem schwarzen Kreuz Zum Vergrößern, auf den grünen Button mit einem Gedankenstrich zu verkleinern, oder auf die grünen Pfeile für benachbarte Karten.


METAR-TAF: